sensor_id;sensor_type;location;lat;lon;timestamp;P1;durP1;ratioP1;P2;durP2;ratioP2
71562;SDS011;59391;52.504;13.438;2023-02-28T00:00:31;10.00;;;4.40;;
71562;SDS011;59391;52.504;13.438;2023-02-28T00:02:57;10.52;;;5.05;;
71562;SDS011;59391;52.504;13.438;2023-02-28T00:05:24;9.00;;;4.93;;
71562;SDS011;59391;52.504;13.438;2023-02-28T00:07:52;8.65;;;4.63;;
71562;SDS011;59391;52.504;13.438;2023-02-28T00:10:19;9.68;;;5.10;;
71562;SDS011;59391;52.504;13.438;2023-02-28T00:12:49;21.83;;;10.43;;
71562;SDS011;59391;52.504;13.438;2023-02-28T00:15:17;8.90;;;5.60;;
71562;SDS011;59391;52.504;13.438;2023-02-28T00:17:44;11.98;;;5.90;;
71562;SDS011;59391;52.504;13.438;2023-02-28T00:20:10;12.15;;;5.30;;
71562;SDS011;59391;52.504;13.438;2023-02-28T00:22:38;10.50;;;5.40;;
71562;SDS011;59391;52.504;13.438;2023-02-28T00:25:07;9.53;;;5.30;;
71562;SDS011;59391;52.504;13.438;2023-02-28T00:27:36;14.07;;;7.32;;
71562;SDS011;59391;52.504;13.438;2023-02-28T00:30:04;8.90;;;5.03;;
71562;SDS011;59391;52.504;13.438;2023-02-28T00:32:34;9.57;;;5.68;;
71562;SDS011;59391;52.504;13.438;2023-02-28T00:35:00;10.75;;;5.40;;
71562;SDS011;59391;52.504;13.438;2023-02-28T00:37:27;9.70;;;5.23;;
71562;SDS011;59391;52.504;13.438;2023-02-28T00:39:52;8.68;;;5.15;;
71562;SDS011;59391;52.504;13.438;2023-02-28T00:42:18;10.50;;;5.43;;
71562;SDS011;59391;52.504;13.438;2023-02-28T00:44:44;10.93;;;5.50;;
71562;SDS011;59391;52.504;13.438;2023-02-28T00:47:09;11.87;;;5.30;;
71562;SDS011;59391;52.504;13.438;2023-02-28T00:49:35;10.52;;;5.18;;
71562;SDS011;59391;52.504;13.438;2023-02-28T00:52:00;9.48;;;5.18;;
71562;SDS011;59391;52.504;13.438;2023-02-28T00:54:26;11.07;;;4.90;;
71562;SDS011;59391;52.504;13.438;2023-02-28T00:56:52;8.48;;;4.82;;
71562;SDS011;59391;52.504;13.438;2023-02-28T00:59:17;11.57;;;6.00;;
71562;SDS011;59391;52.504;13.438;2023-02-28T01:01:44;11.25;;;5.78;;
71562;SDS011;59391;52.504;13.438;2023-02-28T01:04:11;9.63;;;5.70;;
71562;SDS011;59391;52.504;13.438;2023-02-28T01:06:38;9.95;;;5.10;;
71562;SDS011;59391;52.504;13.438;2023-02-28T01:09:04;12.03;;;6.10;;
71562;SDS011;59391;52.504;13.438;2023-02-28T01:11:31;12.32;;;6.13;;
71562;SDS011;59391;52.504;13.438;2023-02-28T01:13:58;11.55;;;6.43;;
71562;SDS011;59391;52.504;13.438;2023-02-28T01:16:24;20.27;;;10.45;;
71562;SDS011;59391;52.504;13.438;2023-02-28T01:18:50;17.02;;;6.68;;
71562;SDS011;59391;52.504;13.438;2023-02-28T01:21:16;10.77;;;6.67;;
71562;SDS011;59391;52.504;13.438;2023-02-28T01:23:44;9.45;;;5.40;;
71562;SDS011;59391;52.504;13.438;2023-02-28T01:26:14;10.82;;;5.72;;
71562;SDS011;59391;52.504;13.438;2023-02-28T01:28:47;10.45;;;6.00;;
71562;SDS011;59391;52.504;13.438;2023-02-28T01:31:15;14.80;;;7.33;;
71562;SDS011;59391;52.504;13.438;2023-02-28T01:33:42;21.02;;;9.77;;
71562;SDS011;59391;52.504;13.438;2023-02-28T01:36:11;14.32;;;7.43;;
71562;SDS011;59391;52.504;13.438;2023-02-28T01:38:40;12.35;;;6.25;;
71562;SDS011;59391;52.504;13.438;2023-02-28T01:41:06;16.43;;;6.80;;
71562;SDS011;59391;52.504;13.438;2023-02-28T01:46:07;14.35;;;6.93;;
71562;SDS011;59391;52.504;13.438;2023-02-28T01:48:34;14.93;;;7.03;;
71562;SDS011;59391;52.504;13.438;2023-02-28T01:51:13;10.77;;;6.28;;
71562;SDS011;59391;52.504;13.438;2023-02-28T01:53:47;10.98;;;6.35;;
71562;SDS011;59391;52.504;13.438;2023-02-28T01:56:20;13.15;;;6.20;;
71562;SDS011;59391;52.504;13.438;2023-02-28T01:58:53;11.75;;;5.80;;
71562;SDS011;59391;52.504;13.438;2023-02-28T02:01:20;11.53;;;5.80;;
71562;SDS011;59391;52.504;13.438;2023-02-28T02:03:51;12.10;;;7.15;;
71562;SDS011;59391;52.504;13.438;2023-02-28T02:06:30;13.60;;;7.40;;
71562;SDS011;59391;52.504;13.438;2023-02-28T02:09:05;13.65;;;7.75;;
71562;SDS011;59391;52.504;13.438;2023-02-28T02:11:31;15.73;;;7.15;;
71562;SDS011;59391;52.504;13.438;2023-02-28T02:17:01;16.63;;;8.02;;
71562;SDS011;59391;52.504;13.438;2023-02-28T02:20:00;17.23;;;7.85;;
71562;SDS011;59391;52.504;13.438;2023-02-28T02:32:35;14.38;;;7.10;;
71562;SDS011;59391;52.504;13.438;2023-02-28T02:38:35;13.25;;;6.82;;
71562;SDS011;59391;52.504;13.438;2023-02-28T02:41:22;13.15;;;7.15;;
71562;SDS011;59391;52.504;13.438;2023-02-28T02:44:12;14.63;;;6.77;;
71562;SDS011;59391;52.504;13.438;2023-02-28T02:46:57;12.57;;;7.13;;
71562;SDS011;59391;52.504;13.438;2023-02-28T02:49:33;14.48;;;7.55;;
71562;SDS011;59391;52.504;13.438;2023-02-28T02:52:06;13.45;;;7.63;;
71562;SDS011;59391;52.504;13.438;2023-02-28T02:54:36;13.43;;;7.00;;
71562;SDS011;59391;52.504;13.438;2023-02-28T02:57:08;13.80;;;8.10;;
71562;SDS011;59391;52.504;13.438;2023-02-28T02:59:44;11.35;;;6.82;;
71562;SDS011;59391;52.504;13.438;2023-02-28T03:02:11;14.32;;;8.00;;
71562;SDS011;59391;52.504;13.438;2023-02-28T03:04:42;12.63;;;6.82;;
71562;SDS011;59391;52.504;13.438;2023-02-28T03:07:18;11.15;;;6.50;;
71562;SDS011;59391;52.504;13.438;2023-02-28T03:09:56;14.17;;;7.27;;
71562;SDS011;59391;52.504;13.438;2023-02-28T03:12:23;12.73;;;6.88;;
71562;SDS011;59391;52.504;13.438;2023-02-28T03:15:24;15.63;;;8.02;;
71562;SDS011;59391;52.504;13.438;2023-02-28T03:18:04;14.53;;;7.23;;
71562;SDS011;59391;52.504;13.438;2023-02-28T03:20:41;16.58;;;7.72;;
71562;SDS011;59391;52.504;13.438;2023-02-28T03:27:09;15.65;;;7.13;;
71562;SDS011;59391;52.504;13.438;2023-02-28T03:29:47;12.57;;;7.07;;
71562;SDS011;59391;52.504;13.438;2023-02-28T03:32:27;13.10;;;6.40;;
71562;SDS011;59391;52.504;13.438;2023-02-28T03:35:01;12.50;;;7.10;;
71562;SDS011;59391;52.504;13.438;2023-02-28T03:37:36;12.75;;;7.70;;
71562;SDS011;59391;52.504;13.438;2023-02-28T03:40:08;15.38;;;8.20;;
71562;SDS011;59391;52.504;13.438;2023-02-28T03:42:41;16.30;;;8.00;;
71562;SDS011;59391;52.504;13.438;2023-02-28T03:45:12;13.90;;;7.73;;
71562;SDS011;59391;52.504;13.438;2023-02-28T03:48:07;14.20;;;7.18;;
71562;SDS011;59391;52.504;13.438;2023-02-28T03:50:41;12.88;;;7.50;;
71562;SDS011;59391;52.504;13.438;2023-02-28T03:53:12;11.77;;;6.93;;
71562;SDS011;59391;52.504;13.438;2023-02-28T03:55:50;14.95;;;7.75;;
71562;SDS011;59391;52.504;13.438;2023-02-28T03:58:29;14.73;;;8.03;;
71562;SDS011;59391;52.504;13.438;2023-02-28T04:01:10;12.13;;;7.30;;
71562;SDS011;59391;52.504;13.438;2023-02-28T04:03:46;13.93;;;8.13;;
71562;SDS011;59391;52.504;13.438;2023-02-28T04:06:18;15.07;;;7.80;;
71562;SDS011;59391;52.504;13.438;2023-02-28T04:08:47;16.25;;;8.57;;
71562;SDS011;59391;52.504;13.438;2023-02-28T04:11:18;13.85;;;7.90;;
71562;SDS011;59391;52.504;13.438;2023-02-28T04:13:51;19.27;;;9.13;;
71562;SDS011;59391;52.504;13.438;2023-02-28T04:16:17;17.80;;;9.37;;
71562;SDS011;59391;52.504;13.438;2023-02-28T04:18:44;16.85;;;8.63;;
71562;SDS011;59391;52.504;13.438;2023-02-28T04:21:09;16.07;;;8.17;;
71562;SDS011;59391;52.504;13.438;2023-02-28T04:23:36;14.60;;;7.90;;
71562;SDS011;59391;52.504;13.438;2023-02-28T04:26:02;16.08;;;8.55;;
71562;SDS011;59391;52.504;13.438;2023-02-28T04:28:29;17.50;;;8.50;;
71562;SDS011;59391;52.504;13.438;2023-02-28T04:30:55;16.20;;;8.57;;
71562;SDS011;59391;52.504;13.438;2023-02-28T04:33:23;14.52;;;7.82;;
71562;SDS011;59391;52.504;13.438;2023-02-28T04:35:57;17.05;;;8.18;;
71562;SDS011;59391;52.504;13.438;2023-02-28T04:38:30;15.33;;;8.03;;
71562;SDS011;59391;52.504;13.438;2023-02-28T04:40:59;17.90;;;8.73;;
71562;SDS011;59391;52.504;13.438;2023-02-28T04:43:26;15.25;;;8.00;;
71562;SDS011;59391;52.504;13.438;2023-02-28T04:45:53;16.73;;;8.00;;
71562;SDS011;59391;52.504;13.438;2023-02-28T04:48:22;16.38;;;7.38;;
71562;SDS011;59391;52.504;13.438;2023-02-28T04:50:59;31.73;;;15.87;;
71562;SDS011;59391;52.504;13.438;2023-02-28T04:53:31;13.35;;;8.00;;
71562;SDS011;59391;52.504;13.438;2023-02-28T04:55:57;14.07;;;8.35;;
71562;SDS011;59391;52.504;13.438;2023-02-28T04:58:23;14.43;;;7.60;;
71562;SDS011;59391;52.504;13.438;2023-02-28T05:00:50;14.63;;;8.05;;
71562;SDS011;59391;52.504;13.438;2023-02-28T05:03:19;13.07;;;6.67;;
71562;SDS011;59391;52.504;13.438;2023-02-28T05:05:46;17.00;;;7.05;;
71562;SDS011;59391;52.504;13.438;2023-02-28T05:08:12;15.18;;;7.68;;
71562;SDS011;59391;52.504;13.438;2023-02-28T05:10:38;12.10;;;7.27;;
71562;SDS011;59391;52.504;13.438;2023-02-28T05:13:04;12.77;;;7.57;;
71562;SDS011;59391;52.504;13.438;2023-02-28T05:15:29;20.60;;;9.43;;
71562;SDS011;59391;52.504;13.438;2023-02-28T05:17:55;15.57;;;8.10;;
71562;SDS011;59391;52.504;13.438;2023-02-28T05:20:20;16.25;;;7.93;;
71562;SDS011;59391;52.504;13.438;2023-02-28T05:22:46;14.07;;;7.43;;
71562;SDS011;59391;52.504;13.438;2023-02-28T05:25:17;14.13;;;8.20;;
71562;SDS011;59391;52.504;13.438;2023-02-28T05:27:46;13.90;;;7.95;;
71562;SDS011;59391;52.504;13.438;2023-02-28T05:30:12;15.37;;;7.37;;
71562;SDS011;59391;52.504;13.438;2023-02-28T05:32:39;13.77;;;7.50;;
71562;SDS011;59391;52.504;13.438;2023-02-28T05:35:09;11.98;;;6.90;;
71562;SDS011;59391;52.504;13.438;2023-02-28T05:37:36;14.07;;;7.93;;
71562;SDS011;59391;52.504;13.438;2023-02-28T05:40:04;13.40;;;7.93;;
71562;SDS011;59391;52.504;13.438;2023-02-28T05:42:32;13.23;;;7.97;;
71562;SDS011;59391;52.504;13.438;2023-02-28T05:44:58;16.48;;;8.75;;
71562;SDS011;59391;52.504;13.438;2023-02-28T05:47:23;16.65;;;7.82;;
71562;SDS011;59391;52.504;13.438;2023-02-28T05:49:49;12.87;;;6.90;;
71562;SDS011;59391;52.504;13.438;2023-02-28T05:52:15;13.32;;;7.88;;
71562;SDS011;59391;52.504;13.438;2023-02-28T05:54:41;14.93;;;7.93;;
71562;SDS011;59391;52.504;13.438;2023-02-28T05:57:06;13.02;;;6.78;;
71562;SDS011;59391;52.504;13.438;2023-02-28T05:59:32;18.70;;;8.20;;
71562;SDS011;59391;52.504;13.438;2023-02-28T06:01:58;13.82;;;7.80;;
71562;SDS011;59391;52.504;13.438;2023-02-28T06:04:23;12.83;;;8.10;;
71562;SDS011;59391;52.504;13.438;2023-02-28T06:06:49;18.85;;;8.35;;
71562;SDS011;59391;52.504;13.438;2023-02-28T06:09:16;18.35;;;9.30;;
71562;SDS011;59391;52.504;13.438;2023-02-28T06:11:43;18.73;;;8.93;;
71562;SDS011;59391;52.504;13.438;2023-02-28T06:14:14;16.70;;;8.50;;
71562;SDS011;59391;52.504;13.438;2023-02-28T06:16:42;20.60;;;10.95;;
71562;SDS011;59391;52.504;13.438;2023-02-28T06:19:08;28.30;;;13.20;;
71562;SDS011;59391;52.504;13.438;2023-02-28T06:21:35;18.45;;;9.48;;
71562;SDS011;59391;52.504;13.438;2023-02-28T06:24:01;15.57;;;8.73;;
71562;SDS011;59391;52.504;13.438;2023-02-28T06:26:27;17.38;;;9.70;;
71562;SDS011;59391;52.504;13.438;2023-02-28T06:28:53;20.08;;;8.95;;
71562;SDS011;59391;52.504;13.438;2023-02-28T06:31:19;17.70;;;8.73;;
71562;SDS011;59391;52.504;13.438;2023-02-28T06:33:46;19.88;;;9.10;;
71562;SDS011;59391;52.504;13.438;2023-02-28T06:36:13;15.68;;;8.85;;
71562;SDS011;59391;52.504;13.438;2023-02-28T06:38:41;14.90;;;8.52;;
71562;SDS011;59391;52.504;13.438;2023-02-28T06:41:07;17.17;;;9.30;;
71562;SDS011;59391;52.504;13.438;2023-02-28T06:43:34;17.57;;;8.87;;
71562;SDS011;59391;52.504;13.438;2023-02-28T06:46:05;17.10;;;8.27;;
71562;SDS011;59391;52.504;13.438;2023-02-28T06:48:33;18.95;;;10.38;;
71562;SDS011;59391;52.504;13.438;2023-02-28T06:51:03;18.35;;;10.68;;
71562;SDS011;59391;52.504;13.438;2023-02-28T06:53:35;20.15;;;10.35;;
71562;SDS011;59391;52.504;13.438;2023-02-28T06:56:04;18.73;;;10.47;;
71562;SDS011;59391;52.504;13.438;2023-02-28T06:58:37;14.68;;;8.82;;
71562;SDS011;59391;52.504;13.438;2023-02-28T07:01:06;20.92;;;10.63;;
71562;SDS011;59391;52.504;13.438;2023-02-28T07:03:34;26.70;;;9.77;;
71562;SDS011;59391;52.504;13.438;2023-02-28T07:06:01;18.33;;;9.68;;
71562;SDS011;59391;52.504;13.438;2023-02-28T07:08:27;16.77;;;9.00;;
71562;SDS011;59391;52.504;13.438;2023-02-28T07:10:56;19.90;;;9.63;;
71562;SDS011;59391;52.504;13.438;2023-02-28T07:13:23;22.02;;;9.93;;
71562;SDS011;59391;52.504;13.438;2023-02-28T07:15:56;27.13;;;10.93;;
71562;SDS011;59391;52.504;13.438;2023-02-28T07:18:30;20.80;;;9.82;;
71562;SDS011;59391;52.504;13.438;2023-02-28T07:20:56;18.05;;;9.98;;
71562;SDS011;59391;52.504;13.438;2023-02-28T07:23:23;31.27;;;15.93;;
71562;SDS011;59391;52.504;13.438;2023-02-28T07:25:49;23.77;;;11.20;;
71562;SDS011;59391;52.504;13.438;2023-02-28T07:28:16;30.08;;;10.85;;
71562;SDS011;59391;52.504;13.438;2023-02-28T07:30:41;22.00;;;10.00;;
71562;SDS011;59391;52.504;13.438;2023-02-28T07:33:07;34.93;;;17.63;;
71562;SDS011;59391;52.504;13.438;2023-02-28T07:35:33;22.13;;;10.27;;
71562;SDS011;59391;52.504;13.438;2023-02-28T07:37:59;20.87;;;8.77;;
71562;SDS011;59391;52.504;13.438;2023-02-28T07:40:26;20.80;;;10.05;;
71562;SDS011;59391;52.504;13.438;2023-02-28T07:42:51;26.45;;;10.40;;
71562;SDS011;59391;52.504;13.438;2023-02-28T07:45:17;18.77;;;9.17;;
71562;SDS011;59391;52.504;13.438;2023-02-28T07:47:43;33.50;;;12.88;;
71562;SDS011;59391;52.504;13.438;2023-02-28T07:50:10;26.10;;;10.73;;
71562;SDS011;59391;52.504;13.438;2023-02-28T07:52:39;17.33;;;9.13;;
71562;SDS011;59391;52.504;13.438;2023-02-28T07:55:06;15.60;;;8.07;;
71562;SDS011;59391;52.504;13.438;2023-02-28T07:57:34;20.08;;;8.95;;
71562;SDS011;59391;52.504;13.438;2023-02-28T08:00:00;24.05;;;11.25;;
71562;SDS011;59391;52.504;13.438;2023-02-28T08:02:29;17.55;;;8.85;;
71562;SDS011;59391;52.504;13.438;2023-02-28T08:04:54;19.43;;;7.80;;
71562;SDS011;59391;52.504;13.438;2023-02-28T08:07:20;19.40;;;9.15;;
71562;SDS011;59391;52.504;13.438;2023-02-28T08:09:46;15.63;;;7.10;;
71562;SDS011;59391;52.504;13.438;2023-02-28T08:12:11;25.00;;;7.60;;
71562;SDS011;59391;52.504;13.438;2023-02-28T08:14:37;18.77;;;8.03;;
71562;SDS011;59391;52.504;13.438;2023-02-28T08:17:04;12.68;;;5.80;;
71562;SDS011;59391;52.504;13.438;2023-02-28T08:19:31;18.77;;;8.18;;
71562;SDS011;59391;52.504;13.438;2023-02-28T08:21:57;19.93;;;8.60;;
71562;SDS011;59391;52.504;13.438;2023-02-28T08:24:23;12.55;;;5.85;;
71562;SDS011;59391;52.504;13.438;2023-02-28T08:26:49;11.27;;;6.50;;
71562;SDS011;59391;52.504;13.438;2023-02-28T08:29:15;10.90;;;5.80;;
71562;SDS011;59391;52.504;13.438;2023-02-28T08:31:41;12.50;;;5.28;;
71562;SDS011;59391;52.504;13.438;2023-02-28T08:34:11;12.23;;;6.00;;
71562;SDS011;59391;52.504;13.438;2023-02-28T08:36:39;25.53;;;15.67;;
71562;SDS011;59391;52.504;13.438;2023-02-28T08:39:07;17.73;;;7.38;;
71562;SDS011;59391;52.504;13.438;2023-02-28T08:41:33;8.73;;;4.65;;
71562;SDS011;59391;52.504;13.438;2023-02-28T08:43:58;16.50;;;7.30;;
71562;SDS011;59391;52.504;13.438;2023-02-28T08:46:25;12.65;;;5.97;;
71562;SDS011;59391;52.504;13.438;2023-02-28T08:48:51;11.48;;;6.53;;
71562;SDS011;59391;52.504;13.438;2023-02-28T08:51:18;23.83;;;12.35;;
71562;SDS011;59391;52.504;13.438;2023-02-28T08:53:52;12.65;;;6.80;;
71562;SDS011;59391;52.504;13.438;2023-02-28T08:56:20;9.80;;;5.37;;
71562;SDS011;59391;52.504;13.438;2023-02-28T08:58:47;7.97;;;3.90;;
71562;SDS011;59391;52.504;13.438;2023-02-28T09:01:15;8.48;;;4.35;;
71562;SDS011;59391;52.504;13.438;2023-02-28T09:03:48;9.75;;;4.13;;
71562;SDS011;59391;52.504;13.438;2023-02-28T09:06:16;12.10;;;4.20;;
71562;SDS011;59391;52.504;13.438;2023-02-28T09:08:44;8.53;;;3.80;;
71562;SDS011;59391;52.504;13.438;2023-02-28T09:11:10;9.52;;;3.70;;
71562;SDS011;59391;52.504;13.438;2023-02-28T09:13:36;7.35;;;3.92;;
71562;SDS011;59391;52.504;13.438;2023-02-28T09:16:04;12.45;;;5.82;;
71562;SDS011;59391;52.504;13.438;2023-02-28T09:18:34;7.90;;;3.60;;
71562;SDS011;59391;52.504;13.438;2023-02-28T09:21:05;10.83;;;4.43;;
71562;SDS011;59391;52.504;13.438;2023-02-28T09:23:33;11.18;;;4.07;;
71562;SDS011;59391;52.504;13.438;2023-02-28T09:26:00;11.93;;;5.05;;
71562;SDS011;59391;52.504;13.438;2023-02-28T09:28:26;10.98;;;5.20;;
71562;SDS011;59391;52.504;13.438;2023-02-28T09:30:52;8.40;;;3.70;;
71562;SDS011;59391;52.504;13.438;2023-02-28T09:33:19;13.88;;;7.10;;
71562;SDS011;59391;52.504;13.438;2023-02-28T09:35:47;8.30;;;4.05;;
71562;SDS011;59391;52.504;13.438;2023-02-28T09:38:14;12.27;;;6.15;;
71562;SDS011;59391;52.504;13.438;2023-02-28T09:40:48;11.55;;;5.80;;
71562;SDS011;59391;52.504;13.438;2023-02-28T09:43:24;11.13;;;6.35;;
71562;SDS011;59391;52.504;13.438;2023-02-28T09:45:57;11.43;;;4.80;;
71562;SDS011;59391;52.504;13.438;2023-02-28T09:48:33;10.90;;;5.90;;
71562;SDS011;59391;52.504;13.438;2023-02-28T09:51:14;9.98;;;4.03;;
71562;SDS011;59391;52.504;13.438;2023-02-28T09:54:19;10.23;;;5.72;;
71562;SDS011;59391;52.504;13.438;2023-02-28T09:56:50;5.90;;;3.30;;
71562;SDS011;59391;52.504;13.438;2023-02-28T10:02:41;12.88;;;4.57;;
71562;SDS011;59391;52.504;13.438;2023-02-28T10:05:38;11.27;;;4.40;;
71562;SDS011;59391;52.504;13.438;2023-02-28T10:08:31;5.80;;;3.20;;
71562;SDS011;59391;52.504;13.438;2023-02-28T10:11:13;6.38;;;2.85;;
71562;SDS011;59391;52.504;13.438;2023-02-28T10:13:49;6.50;;;3.10;;
71562;SDS011;59391;52.504;13.438;2023-02-28T10:16:35;7.25;;;3.70;;
71562;SDS011;59391;52.504;13.438;2023-02-28T10:24:57;7.70;;;4.40;;
71562;SDS011;59391;52.504;13.438;2023-02-28T10:27:28;9.20;;;4.47;;
71562;SDS011;59391;52.504;13.438;2023-02-28T10:29:57;16.08;;;7.47;;
71562;SDS011;59391;52.504;13.438;2023-02-28T10:32:29;9.18;;;3.33;;
71562;SDS011;59391;52.504;13.438;2023-02-28T10:35:06;8.38;;;4.22;;
71562;SDS011;59391;52.504;13.438;2023-02-28T10:37:54;5.55;;;3.17;;
71562;SDS011;59391;52.504;13.438;2023-02-28T10:42:56;8.17;;;4.37;;
71562;SDS011;59391;52.504;13.438;2023-02-28T10:45:29;6.43;;;4.10;;
71562;SDS011;59391;52.504;13.438;2023-02-28T10:48:03;9.27;;;5.00;;
71562;SDS011;59391;52.504;13.438;2023-02-28T10:50:51;10.67;;;4.30;;
71562;SDS011;59391;52.504;13.438;2023-02-28T10:58:45;6.72;;;3.33;;
71562;SDS011;59391;52.504;13.438;2023-02-28T11:01:15;7.57;;;4.07;;
71562;SDS011;59391;52.504;13.438;2023-02-28T11:04:16;10.13;;;4.03;;
71562;SDS011;59391;52.504;13.438;2023-02-28T11:06:59;7.97;;;3.60;;
71562;SDS011;59391;52.504;13.438;2023-02-28T11:09:31;8.95;;;4.03;;
71562;SDS011;59391;52.504;13.438;2023-02-28T11:12:01;6.10;;;3.45;;
71562;SDS011;59391;52.504;13.438;2023-02-28T11:14:34;7.45;;;3.80;;
71562;SDS011;59391;52.504;13.438;2023-02-28T11:17:13;9.50;;;4.90;;
71562;SDS011;59391;52.504;13.438;2023-02-28T11:19:47;13.43;;;6.60;;
71562;SDS011;59391;52.504;13.438;2023-02-28T11:22:21;8.32;;;3.97;;
71562;SDS011;59391;52.504;13.438;2023-02-28T11:24:53;10.00;;;3.70;;
71562;SDS011;59391;52.504;13.438;2023-02-28T11:27:25;6.93;;;3.55;;
71562;SDS011;59391;52.504;13.438;2023-02-28T11:29:57;6.27;;;3.10;;
71562;SDS011;59391;52.504;13.438;2023-02-28T11:32:27;7.47;;;4.40;;
71562;SDS011;59391;52.504;13.438;2023-02-28T11:37:35;13.60;;;5.88;;
71562;SDS011;59391;52.504;13.438;2023-02-28T11:40:01;11.55;;;4.95;;
71562;SDS011;59391;52.504;13.438;2023-02-28T11:45:26;7.05;;;3.95;;
71562;SDS011;59391;52.504;13.438;2023-02-28T11:48:22;9.18;;;4.13;;
71562;SDS011;59391;52.504;13.438;2023-02-28T11:51:02;7.20;;;3.97;;
71562;SDS011;59391;52.504;13.438;2023-02-28T11:53:50;8.10;;;4.00;;
71562;SDS011;59391;52.504;13.438;2023-02-28T11:56:41;7.67;;;4.07;;
71562;SDS011;59391;52.504;13.438;2023-02-28T11:59:16;8.50;;;3.95;;
71562;SDS011;59391;52.504;13.438;2023-02-28T12:01:56;8.32;;;4.32;;
71562;SDS011;59391;52.504;13.438;2023-02-28T12:07:47;7.10;;;3.92;;
71562;SDS011;59391;52.504;13.438;2023-02-28T12:10:26;7.73;;;4.00;;
71562;SDS011;59391;52.504;13.438;2023-02-28T12:13:12;7.43;;;3.90;;
71562;SDS011;59391;52.504;13.438;2023-02-28T12:16:22;6.57;;;4.00;;
71562;SDS011;59391;52.504;13.438;2023-02-28T12:19:13;7.00;;;3.90;;
71562;SDS011;59391;52.504;13.438;2023-02-28T12:21:48;8.27;;;3.90;;
71562;SDS011;59391;52.504;13.438;2023-02-28T12:24:45;7.00;;;3.30;;
71562;SDS011;59391;52.504;13.438;2023-02-28T12:27:18;6.03;;;3.38;;
71562;SDS011;59391;52.504;13.438;2023-02-28T12:32:25;5.80;;;3.38;;
71562;SDS011;59391;52.504;13.438;2023-02-28T12:34:57;5.97;;;3.38;;
71562;SDS011;59391;52.504;13.438;2023-02-28T12:37:37;6.17;;;3.33;;
71562;SDS011;59391;52.504;13.438;2023-02-28T12:40:12;7.75;;;3.53;;
71562;SDS011;59391;52.504;13.438;2023-02-28T12:42:45;7.90;;;3.63;;
71562;SDS011;59391;52.504;13.438;2023-02-28T12:45:23;7.38;;;3.78;;
71562;SDS011;59391;52.504;13.438;2023-02-28T12:47:57;19.38;;;7.93;;
71562;SDS011;59391;52.504;13.438;2023-02-28T12:50:30;9.30;;;3.67;;
71562;SDS011;59391;52.504;13.438;2023-02-28T12:53:00;6.68;;;3.42;;
71562;SDS011;59391;52.504;13.438;2023-02-28T13:01:14;6.43;;;3.47;;
71562;SDS011;59391;52.504;13.438;2023-02-28T13:07:26;10.18;;;4.80;;
71562;SDS011;59391;52.504;13.438;2023-02-28T13:10:22;5.65;;;3.42;;
71562;SDS011;59391;52.504;13.438;2023-02-28T13:12:49;6.68;;;3.13;;
71562;SDS011;59391;52.504;13.438;2023-02-28T13:15:25;6.05;;;3.30;;
71562;SDS011;59391;52.504;13.438;2023-02-28T13:17:55;7.50;;;3.50;;
71562;SDS011;59391;52.504;13.438;2023-02-28T13:20:25;7.00;;;3.75;;
71562;SDS011;59391;52.504;13.438;2023-02-28T13:22:58;7.93;;;3.95;;
71562;SDS011;59391;52.504;13.438;2023-02-28T13:28:10;9.27;;;6.25;;
71562;SDS011;59391;52.504;13.438;2023-02-28T13:38:59;5.90;;;3.40;;
71562;SDS011;59391;52.504;13.438;2023-02-28T13:41:47;9.25;;;4.90;;
71562;SDS011;59391;52.504;13.438;2023-02-28T13:44:16;7.37;;;4.00;;
71562;SDS011;59391;52.504;13.438;2023-02-28T13:51:51;15.55;;;7.88;;
71562;SDS011;59391;52.504;13.438;2023-02-28T13:54:33;8.30;;;4.53;;
71562;SDS011;59391;52.504;13.438;2023-02-28T14:11:38;7.20;;;3.80;;
71562;SDS011;59391;52.504;13.438;2023-02-28T14:14:07;6.25;;;3.70;;
71562;SDS011;59391;52.504;13.438;2023-02-28T14:16:54;7.00;;;3.38;;
71562;SDS011;59391;52.504;13.438;2023-02-28T14:19:25;5.60;;;3.57;;
71562;SDS011;59391;52.504;13.438;2023-02-28T14:28:17;9.02;;;4.35;;
71562;SDS011;59391;52.504;13.438;2023-02-28T14:33:42;8.13;;;4.20;;
71562;SDS011;59391;52.504;13.438;2023-02-28T14:36:41;7.07;;;3.78;;
71562;SDS011;59391;52.504;13.438;2023-02-28T14:39:14;9.63;;;5.10;;
71562;SDS011;59391;52.504;13.438;2023-02-28T14:41:46;8.00;;;4.53;;
71562;SDS011;59391;52.504;13.438;2023-02-28T14:44:13;9.27;;;4.38;;
71562;SDS011;59391;52.504;13.438;2023-02-28T14:46:43;8.10;;;4.55;;
71562;SDS011;59391;52.504;13.438;2023-02-28T14:54:45;8.63;;;4.80;;
71562;SDS011;59391;52.504;13.438;2023-02-28T14:57:23;8.80;;;4.80;;
71562;SDS011;59391;52.504;13.438;2023-02-28T15:00:15;6.53;;;3.65;;
71562;SDS011;59391;52.504;13.438;2023-02-28T15:02:59;11.13;;;5.10;;
71562;SDS011;59391;52.504;13.438;2023-02-28T15:05:30;9.07;;;5.38;;
71562;SDS011;59391;52.504;13.438;2023-02-28T15:10:37;12.10;;;5.35;;
71562;SDS011;59391;52.504;13.438;2023-02-28T15:13:11;9.90;;;5.03;;
71562;SDS011;59391;52.504;13.438;2023-02-28T15:15:41;14.65;;;7.97;;
71562;SDS011;59391;52.504;13.438;2023-02-28T15:21:13;9.88;;;4.65;;
71562;SDS011;59391;52.504;13.438;2023-02-28T15:23:53;9.38;;;5.03;;
71562;SDS011;59391;52.504;13.438;2023-02-28T15:26:46;8.95;;;5.00;;
71562;SDS011;59391;52.504;13.438;2023-02-28T15:29:20;10.68;;;5.10;;
71562;SDS011;59391;52.504;13.438;2023-02-28T15:31:51;8.60;;;4.78;;
71562;SDS011;59391;52.504;13.438;2023-02-28T15:34:38;13.23;;;5.80;;
71562;SDS011;59391;52.504;13.438;2023-02-28T15:39:51;8.82;;;4.93;;
71562;SDS011;59391;52.504;13.438;2023-02-28T15:42:21;11.25;;;5.15;;
71562;SDS011;59391;52.504;13.438;2023-02-28T15:44:52;10.10;;;4.30;;
71562;SDS011;59391;52.504;13.438;2023-02-28T15:47:22;8.95;;;4.80;;
71562;SDS011;59391;52.504;13.438;2023-02-28T15:50:01;13.10;;;5.75;;
71562;SDS011;59391;52.504;13.438;2023-02-28T15:52:39;9.65;;;5.53;;
71562;SDS011;59391;52.504;13.438;2023-02-28T15:57:53;11.00;;;5.30;;
71562;SDS011;59391;52.504;13.438;2023-02-28T16:00:27;10.65;;;4.80;;
71562;SDS011;59391;52.504;13.438;2023-02-28T16:02:57;9.02;;;4.55;;
71562;SDS011;59391;52.504;13.438;2023-02-28T16:05:27;7.97;;;4.75;;
71562;SDS011;59391;52.504;13.438;2023-02-28T16:08:11;8.45;;;4.45;;
71562;SDS011;59391;52.504;13.438;2023-02-28T16:10:40;7.82;;;4.35;;
71562;SDS011;59391;52.504;13.438;2023-02-28T16:13:06;10.32;;;5.25;;
71562;SDS011;59391;52.504;13.438;2023-02-28T16:15:37;7.67;;;4.60;;
71562;SDS011;59391;52.504;13.438;2023-02-28T16:18:08;9.65;;;4.85;;
71562;SDS011;59391;52.504;13.438;2023-02-28T16:20:37;12.02;;;5.50;;
71562;SDS011;59391;52.504;13.438;2023-02-28T16:23:02;10.20;;;5.85;;
71562;SDS011;59391;52.504;13.438;2023-02-28T16:25:36;9.05;;;4.88;;
71562;SDS011;59391;52.504;13.438;2023-02-28T16:28:08;9.20;;;4.65;;
71562;SDS011;59391;52.504;13.438;2023-02-28T16:30:44;8.43;;;4.53;;
71562;SDS011;59391;52.504;13.438;2023-02-28T16:33:09;8.18;;;4.60;;
71562;SDS011;59391;52.504;13.438;2023-02-28T16:35:35;11.97;;;5.13;;
71562;SDS011;59391;52.504;13.438;2023-02-28T16:38:01;9.88;;;5.78;;
71562;SDS011;59391;52.504;13.438;2023-02-28T16:40:26;8.70;;;4.73;;
71562;SDS011;59391;52.504;13.438;2023-02-28T16:42:55;7.47;;;4.40;;
71562;SDS011;59391;52.504;13.438;2023-02-28T16:45:26;10.15;;;4.80;;
71562;SDS011;59391;52.504;13.438;2023-02-28T16:47:53;9.00;;;5.07;;